sensor_id;sensor_type;location;lat;lon;timestamp;pressure;altitude;pressure_sealevel;temperature
68911;BMP180;55953;51.650;-0.522;2023-07-20T00:00:43;100822.20;;;16.04
68911;BMP180;55953;51.650;-0.522;2023-07-20T00:03:29;100824.60;;;16.00
68911;BMP180;55953;51.650;-0.522;2023-07-20T00:05:56;100825.80;;;16.00
68911;BMP180;55953;51.650;-0.522;2023-07-20T00:08:24;100822.80;;;16.10
68911;BMP180;55953;51.650;-0.522;2023-07-20T00:10:52;100823.80;;;16.00
68911;BMP180;55953;51.650;-0.522;2023-07-20T00:13:20;100821.40;;;16.10
68911;BMP180;55953;51.650;-0.522;2023-07-20T00:15:48;100821.60;;;16.10
68911;BMP180;55953;51.650;-0.522;2023-07-20T00:18:17;100817.40;;;16.12
68911;BMP180;55953;51.650;-0.522;2023-07-20T00:20:44;100814.60;;;16.14
68911;BMP180;55953;51.650;-0.522;2023-07-20T00:23:12;100823.20;;;16.20
68911;BMP180;55953;51.650;-0.522;2023-07-20T00:25:40;100822.40;;;16.20
68911;BMP180;55953;51.650;-0.522;2023-07-20T00:28:08;100820.80;;;16.20
68911;BMP180;55953;51.650;-0.522;2023-07-20T00:30:38;100820.80;;;16.20
68911;BMP180;55953;51.650;-0.522;2023-07-20T00:33:10;100820.80;;;16.20
68911;BMP180;55953;51.650;-0.522;2023-07-20T00:35:39;100818.20;;;16.10
68911;BMP180;55953;51.650;-0.522;2023-07-20T00:38:07;100817.20;;;16.00
68911;BMP180;55953;51.650;-0.522;2023-07-20T00:40:39;100815.60;;;16.00
68911;BMP180;55953;51.650;-0.522;2023-07-20T00:43:08;100816.20;;;16.00
68911;BMP180;55953;51.650;-0.522;2023-07-20T00:45:38;100818.80;;;15.90
68911;BMP180;55953;51.650;-0.522;2023-07-20T00:48:06;100815.80;;;15.80
68911;BMP180;55953;51.650;-0.522;2023-07-20T00:50:36;100815.20;;;15.74
68911;BMP180;55953;51.650;-0.522;2023-07-20T00:53:05;100819.00;;;15.70
68911;BMP180;55953;51.650;-0.522;2023-07-20T00:55:34;100815.40;;;15.70
68911;BMP180;55953;51.650;-0.522;2023-07-20T00:58:02;100812.20;;;15.70
68911;BMP180;55953;51.650;-0.522;2023-07-20T01:00:30;100813.80;;;15.70
68911;BMP180;55953;51.650;-0.522;2023-07-20T01:02:58;100810.40;;;15.70
68911;BMP180;55953;51.650;-0.522;2023-07-20T01:06:09;100816.60;;;15.70
68911;BMP180;55953;51.650;-0.522;2023-07-20T01:09:17;100813.80;;;15.70
68911;BMP180;55953;51.650;-0.522;2023-07-20T01:12:00;100812.00;;;15.74
68911;BMP180;55953;51.650;-0.522;2023-07-20T01:14:34;100811.60;;;15.80
68911;BMP180;55953;51.650;-0.522;2023-07-20T01:17:03;100806.80;;;15.70
68911;BMP180;55953;51.650;-0.522;2023-07-20T01:19:31;100807.40;;;15.80
68911;BMP180;55953;51.650;-0.522;2023-07-20T01:31:38;100795.40;;;15.88
68911;BMP180;55953;51.650;-0.522;2023-07-20T01:34:11;100799.00;;;15.90
68911;BMP180;55953;51.650;-0.522;2023-07-20T01:36:42;100800.40;;;15.90
68911;BMP180;55953;51.650;-0.522;2023-07-20T01:39:11;100801.60;;;15.80
68911;BMP180;55953;51.650;-0.522;2023-07-20T01:41:39;100803.40;;;15.80
68911;BMP180;55953;51.650;-0.522;2023-07-20T01:44:08;100803.00;;;15.80
68911;BMP180;55953;51.650;-0.522;2023-07-20T01:46:36;100799.80;;;15.76
68911;BMP180;55953;51.650;-0.522;2023-07-20T01:49:04;100793.60;;;15.70
68911;BMP180;55953;51.650;-0.522;2023-07-20T01:51:32;100792.60;;;15.70
68911;BMP180;55953;51.650;-0.522;2023-07-20T01:54:00;100790.80;;;15.60
68911;BMP180;55953;51.650;-0.522;2023-07-20T01:56:28;100788.60;;;15.60
68911;BMP180;55953;51.650;-0.522;2023-07-20T01:58:56;100792.80;;;15.50
68911;BMP180;55953;51.650;-0.522;2023-07-20T02:01:24;100794.00;;;15.40
68911;BMP180;55953;51.650;-0.522;2023-07-20T02:03:52;100789.20;;;15.40
68911;BMP180;55953;51.650;-0.522;2023-07-20T02:06:21;100789.20;;;15.30
68911;BMP180;55953;51.650;-0.522;2023-07-20T02:08:49;100789.60;;;15.30
68911;BMP180;55953;51.650;-0.522;2023-07-20T02:11:17;100794.60;;;15.14
68911;BMP180;55953;51.650;-0.522;2023-07-20T02:13:44;100795.00;;;15.10
68911;BMP180;55953;51.650;-0.522;2023-07-20T02:16:12;100790.40;;;15.00
68911;BMP180;55953;51.650;-0.522;2023-07-20T02:18:40;100787.80;;;14.90
68911;BMP180;55953;51.650;-0.522;2023-07-20T02:21:08;100796.60;;;14.84
68911;BMP180;55953;51.650;-0.522;2023-07-20T02:23:36;100802.60;;;14.78
68911;BMP180;55953;51.650;-0.522;2023-07-20T02:26:04;100799.20;;;14.70
68911;BMP180;55953;51.650;-0.522;2023-07-20T02:28:32;100800.00;;;14.70
68911;BMP180;55953;51.650;-0.522;2023-07-20T02:30:59;100800.40;;;14.68
68911;BMP180;55953;51.650;-0.522;2023-07-20T02:33:28;100797.40;;;14.70
68911;BMP180;55953;51.650;-0.522;2023-07-20T02:35:56;100791.00;;;14.70
68911;BMP180;55953;51.650;-0.522;2023-07-20T02:38:24;100792.60;;;14.70
68911;BMP180;55953;51.650;-0.522;2023-07-20T02:40:52;100790.00;;;14.70
68911;BMP180;55953;51.650;-0.522;2023-07-20T02:43:20;100794.60;;;14.80
68911;BMP180;55953;51.650;-0.522;2023-07-20T02:45:48;100792.20;;;14.80
68911;BMP180;55953;51.650;-0.522;2023-07-20T02:48:15;100791.00;;;14.80
68911;BMP180;55953;51.650;-0.522;2023-07-20T02:50:43;100795.00;;;14.80
68911;BMP180;55953;51.650;-0.522;2023-07-20T02:53:11;100795.40;;;14.80
68911;BMP180;55953;51.650;-0.522;2023-07-20T02:55:39;100794.40;;;14.80
68911;BMP180;55953;51.650;-0.522;2023-07-20T02:58:08;100794.80;;;14.80
68911;BMP180;55953;51.650;-0.522;2023-07-20T03:00:35;100795.20;;;14.74
68911;BMP180;55953;51.650;-0.522;2023-07-20T03:03:03;100792.80;;;14.76
68911;BMP180;55953;51.650;-0.522;2023-07-20T03:05:31;100794.60;;;14.70
68911;BMP180;55953;51.650;-0.522;2023-07-20T03:07:59;100793.00;;;14.70
68911;BMP180;55953;51.650;-0.522;2023-07-20T03:10:30;100791.60;;;14.70
68911;BMP180;55953;51.650;-0.522;2023-07-20T03:12:58;100793.40;;;14.60
68911;BMP180;55953;51.650;-0.522;2023-07-20T03:15:26;100788.80;;;14.60
68911;BMP180;55953;51.650;-0.522;2023-07-20T03:17:53;100789.40;;;14.70
68911;BMP180;55953;51.650;-0.522;2023-07-20T03:20:22;100792.80;;;14.60
68911;BMP180;55953;51.650;-0.522;2023-07-20T03:22:50;100792.20;;;14.60
68911;BMP180;55953;51.650;-0.522;2023-07-20T03:25:17;100788.80;;;14.58
68911;BMP180;55953;51.650;-0.522;2023-07-20T03:27:45;100794.40;;;14.60
68911;BMP180;55953;51.650;-0.522;2023-07-20T03:30:13;100793.60;;;14.60
68911;BMP180;55953;51.650;-0.522;2023-07-20T03:32:41;100796.20;;;14.60
68911;BMP180;55953;51.650;-0.522;2023-07-20T03:35:10;100798.20;;;14.60
68911;BMP180;55953;51.650;-0.522;2023-07-20T03:37:38;100797.20;;;14.60
68911;BMP180;55953;51.650;-0.522;2023-07-20T03:40:06;100797.20;;;14.60
68911;BMP180;55953;51.650;-0.522;2023-07-20T03:42:35;100794.80;;;14.60
68911;BMP180;55953;51.650;-0.522;2023-07-20T03:45:05;100791.40;;;14.58
68911;BMP180;55953;51.650;-0.522;2023-07-20T03:47:33;100795.40;;;14.60
68911;BMP180;55953;51.650;-0.522;2023-07-20T03:50:01;100794.80;;;14.54
68911;BMP180;55953;51.650;-0.522;2023-07-20T03:52:31;100798.60;;;14.50
68911;BMP180;55953;51.650;-0.522;2023-07-20T03:54:58;100791.40;;;14.54
68911;BMP180;55953;51.650;-0.522;2023-07-20T03:57:27;100793.00;;;14.60
68911;BMP180;55953;51.650;-0.522;2023-07-20T03:59:55;100794.20;;;14.60
68911;BMP180;55953;51.650;-0.522;2023-07-20T04:02:23;100789.20;;;14.60
68911;BMP180;55953;51.650;-0.522;2023-07-20T04:04:51;100788.40;;;14.60
68911;BMP180;55953;51.650;-0.522;2023-07-20T04:07:19;100786.20;;;14.54
68911;BMP180;55953;51.650;-0.522;2023-07-20T04:09:46;100790.00;;;14.50
68911;BMP180;55953;51.650;-0.522;2023-07-20T04:12:14;100789.60;;;14.50
68911;BMP180;55953;51.650;-0.522;2023-07-20T04:14:42;100794.20;;;14.50
68911;BMP180;55953;51.650;-0.522;2023-07-20T04:17:10;100791.60;;;14.40
68911;BMP180;55953;51.650;-0.522;2023-07-20T04:19:40;100793.00;;;14.40
68911;BMP180;55953;51.650;-0.522;2023-07-20T04:22:09;100790.80;;;14.40
68911;BMP180;55953;51.650;-0.522;2023-07-20T04:24:36;100790.00;;;14.40
68911;BMP180;55953;51.650;-0.522;2023-07-20T04:27:04;100793.80;;;14.40
68911;BMP180;55953;51.650;-0.522;2023-07-20T04:29:32;100794.00;;;14.40
68911;BMP180;55953;51.650;-0.522;2023-07-20T04:32:00;100792.20;;;14.40
68911;BMP180;55953;51.650;-0.522;2023-07-20T04:34:29;100791.40;;;14.40
68911;BMP180;55953;51.650;-0.522;2023-07-20T04:36:58;100790.00;;;14.40
68911;BMP180;55953;51.650;-0.522;2023-07-20T04:39:27;100788.20;;;14.40
68911;BMP180;55953;51.650;-0.522;2023-07-20T04:42:04;100793.60;;;14.40
68911;BMP180;55953;51.650;-0.522;2023-07-20T04:44:32;100792.60;;;14.40
68911;BMP180;55953;51.650;-0.522;2023-07-20T04:47:00;100788.40;;;14.40
68911;BMP180;55953;51.650;-0.522;2023-07-20T04:49:30;100786.60;;;14.40
68911;BMP180;55953;51.650;-0.522;2023-07-20T04:51:57;100790.80;;;14.40
68911;BMP180;55953;51.650;-0.522;2023-07-20T04:54:26;100787.40;;;14.40
68911;BMP180;55953;51.650;-0.522;2023-07-20T04:56:55;100786.20;;;14.40
68911;BMP180;55953;51.650;-0.522;2023-07-20T04:59:23;100787.00;;;14.42
68911;BMP180;55953;51.650;-0.522;2023-07-20T05:01:51;100789.00;;;14.40
68911;BMP180;55953;51.650;-0.522;2023-07-20T05:04:19;100787.80;;;14.48
68911;BMP180;55953;51.650;-0.522;2023-07-20T05:06:49;100785.20;;;14.48
68911;BMP180;55953;51.650;-0.522;2023-07-20T05:09:17;100789.60;;;14.50
68911;BMP180;55953;51.650;-0.522;2023-07-20T05:11:45;100791.40;;;14.50
68911;BMP180;55953;51.650;-0.522;2023-07-20T05:14:15;100787.00;;;14.40
68911;BMP180;55953;51.650;-0.522;2023-07-20T05:16:43;100790.40;;;14.40
68911;BMP180;55953;51.650;-0.522;2023-07-20T05:19:11;100791.00;;;14.40
68911;BMP180;55953;51.650;-0.522;2023-07-20T05:21:38;100792.40;;;14.42
68911;BMP180;55953;51.650;-0.522;2023-07-20T05:24:07;100788.40;;;14.40
68911;BMP180;55953;51.650;-0.522;2023-07-20T05:26:35;100791.20;;;14.48
68911;BMP180;55953;51.650;-0.522;2023-07-20T05:29:02;100789.40;;;14.58
68911;BMP180;55953;51.650;-0.522;2023-07-20T05:31:30;100787.40;;;14.60
68911;BMP180;55953;51.650;-0.522;2023-07-20T05:33:59;100790.60;;;14.70
68911;BMP180;55953;51.650;-0.522;2023-07-20T05:36:27;100789.20;;;14.70
68911;BMP180;55953;51.650;-0.522;2023-07-20T05:38:55;100791.20;;;14.80
68911;BMP180;55953;51.650;-0.522;2023-07-20T05:41:23;100790.40;;;14.70
68911;BMP180;55953;51.650;-0.522;2023-07-20T05:43:50;100793.00;;;14.70
68911;BMP180;55953;51.650;-0.522;2023-07-20T05:46:19;100794.20;;;14.70
68911;BMP180;55953;51.650;-0.522;2023-07-20T05:48:47;100795.60;;;14.70
68911;BMP180;55953;51.650;-0.522;2023-07-20T05:51:15;100795.00;;;14.70
68911;BMP180;55953;51.650;-0.522;2023-07-20T05:53:43;100791.00;;;14.70
68911;BMP180;55953;51.650;-0.522;2023-07-20T05:56:10;100787.00;;;14.78
68911;BMP180;55953;51.650;-0.522;2023-07-20T05:58:38;100784.60;;;14.80
68911;BMP180;55953;51.650;-0.522;2023-07-20T06:01:06;100784.00;;;14.80
68911;BMP180;55953;51.650;-0.522;2023-07-20T06:03:34;100782.40;;;14.80
68911;BMP180;55953;51.650;-0.522;2023-07-20T06:06:03;100780.80;;;14.90
68911;BMP180;55953;51.650;-0.522;2023-07-20T06:08:36;100784.40;;;14.90
68911;BMP180;55953;51.650;-0.522;2023-07-20T06:11:04;100787.20;;;15.00
68911;BMP180;55953;51.650;-0.522;2023-07-20T06:13:31;100785.60;;;15.00
68911;BMP180;55953;51.650;-0.522;2023-07-20T06:15:59;100786.00;;;15.00
68911;BMP180;55953;51.650;-0.522;2023-07-20T06:18:27;100787.40;;;15.08
68911;BMP180;55953;51.650;-0.522;2023-07-20T06:20:55;100784.80;;;15.10
68911;BMP180;55953;51.650;-0.522;2023-07-20T06:23:23;100788.20;;;15.14
68911;BMP180;55953;51.650;-0.522;2023-07-20T06:25:50;100790.60;;;15.20
68911;BMP180;55953;51.650;-0.522;2023-07-20T06:28:18;100789.00;;;15.20
68911;BMP180;55953;51.650;-0.522;2023-07-20T06:30:46;100789.60;;;15.20
68911;BMP180;55953;51.650;-0.522;2023-07-20T06:33:14;100789.40;;;15.20
68911;BMP180;55953;51.650;-0.522;2023-07-20T06:35:42;100791.40;;;15.28
68911;BMP180;55953;51.650;-0.522;2023-07-20T06:38:13;100789.00;;;15.30
68911;BMP180;55953;51.650;-0.522;2023-07-20T06:40:46;100790.60;;;15.30
68911;BMP180;55953;51.650;-0.522;2023-07-20T06:43:15;100788.20;;;15.40
68911;BMP180;55953;51.650;-0.522;2023-07-20T06:45:52;100791.40;;;15.40
68911;BMP180;55953;51.650;-0.522;2023-07-20T06:48:23;100787.40;;;15.42
68911;BMP180;55953;51.650;-0.522;2023-07-20T06:50:51;100793.80;;;15.50
68911;BMP180;55953;51.650;-0.522;2023-07-20T06:53:19;100790.60;;;15.50
68911;BMP180;55953;51.650;-0.522;2023-07-20T06:55:47;100791.80;;;15.50
68911;BMP180;55953;51.650;-0.522;2023-07-20T06:58:15;100790.00;;;15.60
68911;BMP180;55953;51.650;-0.522;2023-07-20T07:00:43;100795.40;;;15.60
68911;BMP180;55953;51.650;-0.522;2023-07-20T07:03:12;100795.00;;;15.70
68911;BMP180;55953;51.650;-0.522;2023-07-20T07:05:40;100795.60;;;15.80
68911;BMP180;55953;51.650;-0.522;2023-07-20T07:08:08;100798.60;;;15.80
68911;BMP180;55953;51.650;-0.522;2023-07-20T07:10:36;100796.80;;;15.90
68911;BMP180;55953;51.650;-0.522;2023-07-20T07:13:04;100796.60;;;16.00
68911;BMP180;55953;51.650;-0.522;2023-07-20T07:15:33;100798.20;;;16.10
68911;BMP180;55953;51.650;-0.522;2023-07-20T07:18:01;100802.60;;;16.14
68911;BMP180;55953;51.650;-0.522;2023-07-20T07:20:31;100805.00;;;16.20
68911;BMP180;55953;51.650;-0.522;2023-07-20T07:22:59;100803.40;;;16.20
68911;BMP180;55953;51.650;-0.522;2023-07-20T07:25:28;100804.60;;;16.20
68911;BMP180;55953;51.650;-0.522;2023-07-20T07:27:56;100804.00;;;16.28
68911;BMP180;55953;51.650;-0.522;2023-07-20T07:30:23;100801.00;;;16.30
68911;BMP180;55953;51.650;-0.522;2023-07-20T07:32:51;100797.80;;;16.40
68911;BMP180;55953;51.650;-0.522;2023-07-20T07:35:19;100794.00;;;16.40
68911;BMP180;55953;51.650;-0.522;2023-07-20T07:37:47;100792.80;;;16.50
68911;BMP180;55953;51.650;-0.522;2023-07-20T07:40:18;100788.60;;;16.50
68911;BMP180;55953;51.650;-0.522;2023-07-20T07:42:46;100793.40;;;16.60
68911;BMP180;55953;51.650;-0.522;2023-07-20T07:45:15;100793.20;;;16.70
68911;BMP180;55953;51.650;-0.522;2023-07-20T07:47:44;100784.00;;;16.80
68911;BMP180;55953;51.650;-0.522;2023-07-20T07:50:12;100787.80;;;16.80
68911;BMP180;55953;51.650;-0.522;2023-07-20T07:52:40;100788.80;;;16.82
68911;BMP180;55953;51.650;-0.522;2023-07-20T07:55:07;100784.20;;;16.90
68911;BMP180;55953;51.650;-0.522;2023-07-20T07:57:35;100792.40;;;16.98
68911;BMP180;55953;51.650;-0.522;2023-07-20T08:00:04;100786.40;;;17.00
68911;BMP180;55953;51.650;-0.522;2023-07-20T08:02:33;100785.00;;;17.10
68911;BMP180;55953;51.650;-0.522;2023-07-20T08:05:01;100786.00;;;17.10
68911;BMP180;55953;51.650;-0.522;2023-07-20T08:07:29;100783.00;;;17.20
68911;BMP180;55953;51.650;-0.522;2023-07-20T08:09:57;100785.80;;;17.40
68911;BMP180;55953;51.650;-0.522;2023-07-20T08:12:26;100782.80;;;17.50
68911;BMP180;55953;51.650;-0.522;2023-07-20T08:14:54;100781.00;;;17.60
68911;BMP180;55953;51.650;-0.522;2023-07-20T08:17:22;100784.00;;;17.64
68911;BMP180;55953;51.650;-0.522;2023-07-20T08:19:50;100788.60;;;17.70
68911;BMP180;55953;51.650;-0.522;2023-07-20T08:22:18;100779.20;;;17.96
68911;BMP180;55953;51.650;-0.522;2023-07-20T08:24:46;100778.20;;;18.26
68911;BMP180;55953;51.650;-0.522;2023-07-20T08:27:14;100780.20;;;18.48
68911;BMP180;55953;51.650;-0.522;2023-07-20T08:29:41;100773.40;;;18.80
68911;BMP180;55953;51.650;-0.522;2023-07-20T08:32:09;100774.60;;;19.10
68911;BMP180;55953;51.650;-0.522;2023-07-20T08:34:37;100774.80;;;19.36
68911;BMP180;55953;51.650;-0.522;2023-07-20T08:37:05;100774.20;;;19.30
68911;BMP180;55953;51.650;-0.522;2023-07-20T08:39:33;100772.40;;;19.30
68911;BMP180;55953;51.650;-0.522;2023-07-20T08:42:04;100771.60;;;19.30
68911;BMP180;55953;51.650;-0.522;2023-07-20T08:44:34;100769.40;;;19.30
68911;BMP180;55953;51.650;-0.522;2023-07-20T08:47:04;100769.40;;;19.32
68911;BMP180;55953;51.650;-0.522;2023-07-20T08:49:35;100771.60;;;19.40
68911;BMP180;55953;51.650;-0.522;2023-07-20T08:52:04;100776.80;;;19.40
68911;BMP180;55953;51.650;-0.522;2023-07-20T08:54:33;100776.20;;;19.20
68911;BMP180;55953;51.650;-0.522;2023-07-20T08:57:04;100777.00;;;19.10
68911;BMP180;55953;51.650;-0.522;2023-07-20T08:59:36;100771.40;;;19.10
68911;BMP180;55953;51.650;-0.522;2023-07-20T09:02:05;100773.20;;;19.10
68911;BMP180;55953;51.650;-0.522;2023-07-20T09:04:33;100769.40;;;19.06
68911;BMP180;55953;51.650;-0.522;2023-07-20T09:07:01;100770.60;;;19.10
68911;BMP180;55953;51.650;-0.522;2023-07-20T09:09:29;100777.00;;;19.22
68911;BMP180;55953;51.650;-0.522;2023-07-20T09:11:57;100770.60;;;19.20
68911;BMP180;55953;51.650;-0.522;2023-07-20T09:14:25;100762.00;;;19.20
68911;BMP180;55953;51.650;-0.522;2023-07-20T09:16:55;100771.80;;;19.20
68911;BMP180;55953;51.650;-0.522;2023-07-20T09:19:23;100771.80;;;19.20
68911;BMP180;55953;51.650;-0.522;2023-07-20T09:21:52;100770.00;;;19.30
68911;BMP180;55953;51.650;-0.522;2023-07-20T09:24:20;100764.80;;;19.20
68911;BMP180;55953;51.650;-0.522;2023-07-20T09:26:50;100764.60;;;19.26
68911;BMP180;55953;51.650;-0.522;2023-07-20T09:29:19;100761.40;;;19.30
68911;BMP180;55953;51.650;-0.522;2023-07-20T09:32:18;100763.80;;;19.20
68911;BMP180;55953;51.650;-0.522;2023-07-20T09:34:54;100758.60;;;19.22
68911;BMP180;55953;51.650;-0.522;2023-07-20T09:37:23;100764.00;;;19.26
68911;BMP180;55953;51.650;-0.522;2023-07-20T09:39:52;100762.60;;;19.26
68911;BMP180;55953;51.650;-0.522;2023-07-20T09:42:24;100761.20;;;19.28
68911;BMP180;55953;51.650;-0.522;2023-07-20T09:44:56;100758.20;;;19.30
68911;BMP180;55953;51.650;-0.522;2023-07-20T09:47:25;100756.00;;;19.38
68911;BMP180;55953;51.650;-0.522;2023-07-20T09:49:59;100749.40;;;19.30
68911;BMP180;55953;51.650;-0.522;2023-07-20T09:52:31;100753.20;;;19.42
68911;BMP180;55953;51.650;-0.522;2023-07-20T09:55:03;100749.00;;;19.54
68911;BMP180;55953;51.650;-0.522;2023-07-20T09:57:33;100745.40;;;19.60
68911;BMP180;55953;51.650;-0.522;2023-07-20T10:00:05;100742.80;;;19.64
68911;BMP180;55953;51.650;-0.522;2023-07-20T10:02:44;100740.60;;;19.80
68911;BMP180;55953;51.650;-0.522;2023-07-20T10:05:14;100743.40;;;19.90
68911;BMP180;55953;51.650;-0.522;2023-07-20T10:07:50;100737.60;;;19.94
68911;BMP180;55953;51.650;-0.522;2023-07-20T10:10:41;100733.60;;;20.10
68911;BMP180;55953;51.650;-0.522;2023-07-20T10:13:21;100728.80;;;20.20
68911;BMP180;55953;51.650;-0.522;2023-07-20T10:16:04;100731.80;;;20.30
68911;BMP180;55953;51.650;-0.522;2023-07-20T10:21:20;100732.60;;;20.60
68911;BMP180;55953;51.650;-0.522;2023-07-20T10:23:55;100731.60;;;20.50
68911;BMP180;55953;51.650;-0.522;2023-07-20T10:26:26;100730.80;;;20.40
68911;BMP180;55953;51.650;-0.522;2023-07-20T10:28:56;100727.60;;;20.30
68911;BMP180;55953;51.650;-0.522;2023-07-20T10:31:25;100726.20;;;20.26
68911;BMP180;55953;51.650;-0.522;2023-07-20T10:33:57;100726.00;;;20.16
68911;BMP180;55953;51.650;-0.522;2023-07-20T10:36:26;100724.60;;;20.12
68911;BMP180;55953;51.650;-0.522;2023-07-20T10:38:59;100727.00;;;20.26
68911;BMP180;55953;51.650;-0.522;2023-07-20T10:41:34;100724.80;;;20.40
68911;BMP180;55953;51.650;-0.522;2023-07-20T10:44:04;100721.80;;;20.54
68911;BMP180;55953;51.650;-0.522;2023-07-20T10:49:09;100716.80;;;20.90
68911;BMP180;55953;51.650;-0.522;2023-07-20T10:51:46;100716.00;;;21.06
68911;BMP180;55953;51.650;-0.522;2023-07-20T10:56:50;100715.20;;;21.20
68911;BMP180;55953;51.650;-0.522;2023-07-20T10:59:42;100711.20;;;21.40
68911;BMP180;55953;51.650;-0.522;2023-07-20T11:02:09;100709.40;;;21.40
68911;BMP180;55953;51.650;-0.522;2023-07-20T11:04:41;100710.20;;;21.40
68911;BMP180;55953;51.650;-0.522;2023-07-20T11:07:09;100709.60;;;21.54
68911;BMP180;55953;51.650;-0.522;2023-07-20T11:09:38;100701.80;;;21.78
68911;BMP180;55953;51.650;-0.522;2023-07-20T11:12:16;100702.60;;;21.98
68911;BMP180;55953;51.650;-0.522;2023-07-20T11:14:56;100704.20;;;21.80
68911;BMP180;55953;51.650;-0.522;2023-07-20T11:17:31;100702.60;;;21.60
68911;BMP180;55953;51.650;-0.522;2023-07-20T11:22:19;100702.00;;;21.88
68911;BMP180;55953;51.650;-0.522;2023-07-20T11:24:48;100694.00;;;22.00
68911;BMP180;55953;51.650;-0.522;2023-07-20T11:27:19;100691.80;;;22.10
68911;BMP180;55953;51.650;-0.522;2023-07-20T11:29:50;100705.80;;;21.90
68911;BMP180;55953;51.650;-0.522;2023-07-20T11:32:24;100695.00;;;21.72
68911;BMP180;55953;51.650;-0.522;2023-07-20T11:34:52;100697.40;;;21.60
68911;BMP180;55953;51.650;-0.522;2023-07-20T11:37:20;100699.00;;;21.70
68911;BMP180;55953;51.650;-0.522;2023-07-20T11:39:48;100695.80;;;21.60
68911;BMP180;55953;51.650;-0.522;2023-07-20T11:42:19;100695.20;;;21.90
68911;BMP180;55953;51.650;-0.522;2023-07-20T11:44:51;100689.00;;;22.10
68911;BMP180;55953;51.650;-0.522;2023-07-20T11:47:19;100690.40;;;22.24
68911;BMP180;55953;51.650;-0.522;2023-07-20T11:49:47;100682.60;;;22.50
68911;BMP180;55953;51.650;-0.522;2023-07-20T11:52:23;100684.20;;;22.76
68911;BMP180;55953;51.650;-0.522;2023-07-20T11:54:52;100679.60;;;23.00
68911;BMP180;55953;51.650;-0.522;2023-07-20T11:57:24;100680.40;;;23.10
68911;BMP180;55953;51.650;-0.522;2023-07-20T11:59:56;100685.40;;;22.88
68911;BMP180;55953;51.650;-0.522;2023-07-20T12:02:28;100678.40;;;22.70
68911;BMP180;55953;51.650;-0.522;2023-07-20T12:04:57;100677.40;;;22.76
68911;BMP180;55953;51.650;-0.522;2023-07-20T12:07:28;100674.20;;;22.70
68911;BMP180;55953;51.650;-0.522;2023-07-20T12:10:08;100673.00;;;22.70
68911;BMP180;55953;51.650;-0.522;2023-07-20T12:12:41;100671.40;;;22.78
68911;BMP180;55953;51.650;-0.522;2023-07-20T12:15:26;100672.40;;;22.90
68911;BMP180;55953;51.650;-0.522;2023-07-20T12:17:57;100671.80;;;22.96
68911;BMP180;55953;51.650;-0.522;2023-07-20T12:20:33;100671.60;;;22.80
68911;BMP180;55953;51.650;-0.522;2023-07-20T12:23:13;100672.20;;;22.70
68911;BMP180;55953;51.650;-0.522;2023-07-20T12:25:45;100674.80;;;22.50
68911;BMP180;55953;51.650;-0.522;2023-07-20T12:28:19;100672.20;;;22.30
68911;BMP180;55953;51.650;-0.522;2023-07-20T12:30:47;100669.00;;;22.40
68911;BMP180;55953;51.650;-0.522;2023-07-20T12:33:24;100665.20;;;22.76
68911;BMP180;55953;51.650;-0.522;2023-07-20T12:35:52;100663.40;;;23.06
68911;BMP180;55953;51.650;-0.522;2023-07-20T12:38:23;100662.40;;;23.20
68911;BMP180;55953;51.650;-0.522;2023-07-20T12:40:51;100654.40;;;23.00
68911;BMP180;55953;51.650;-0.522;2023-07-20T12:43:19;100656.60;;;23.10
68911;BMP180;55953;51.650;-0.522;2023-07-20T12:45:47;100653.00;;;23.20
68911;BMP180;55953;51.650;-0.522;2023-07-20T12:48:15;100650.40;;;23.20
68911;BMP180;55953;51.650;-0.522;2023-07-20T12:50:43;100648.20;;;23.46
68911;BMP180;55953;51.650;-0.522;2023-07-20T12:53:11;100636.20;;;23.80
68911;BMP180;55953;51.650;-0.522;2023-07-20T12:55:39;100636.00;;;24.12
68911;BMP180;55953;51.650;-0.522;2023-07-20T12:58:08;100639.40;;;24.50
68911;BMP180;55953;51.650;-0.522;2023-07-20T13:00:36;100632.80;;;24.84
68911;BMP180;55953;51.650;-0.522;2023-07-20T13:03:04;100629.80;;;25.12
68911;BMP180;55953;51.650;-0.522;2023-07-20T13:05:35;100630.60;;;24.96
68911;BMP180;55953;51.650;-0.522;2023-07-20T13:08:06;100636.20;;;24.68
68911;BMP180;55953;51.650;-0.522;2023-07-20T13:10:38;100632.40;;;24.20
68911;BMP180;55953;51.650;-0.522;2023-07-20T13:13:07;100631.00;;;24.00
68911;BMP180;55953;51.650;-0.522;2023-07-20T13:15:44;100632.40;;;23.90
68911;BMP180;55953;51.650;-0.522;2023-07-20T13:18:14;100631.40;;;23.80
68911;BMP180;55953;51.650;-0.522;2023-07-20T13:20:42;100630.60;;;23.80
68911;BMP180;55953;51.650;-0.522;2023-07-20T13:23:09;100624.60;;;23.70
68911;BMP180;55953;51.650;-0.522;2023-07-20T13:25:38;100623.40;;;24.00
68911;BMP180;55953;51.650;-0.522;2023-07-20T13:28:06;100615.40;;;24.06
68911;BMP180;55953;51.650;-0.522;2023-07-20T13:30:34;100623.40;;;24.30
68911;BMP180;55953;51.650;-0.522;2023-07-20T13:33:02;100617.40;;;24.30
68911;BMP180;55953;51.650;-0.522;2023-07-20T13:35:34;100621.00;;;24.30
68911;BMP180;55953;51.650;-0.522;2023-07-20T13:38:04;100618.60;;;24.30
68911;BMP180;55953;51.650;-0.522;2023-07-20T13:40:32;100618.60;;;24.20
68911;BMP180;55953;51.650;-0.522;2023-07-20T13:43:00;100613.20;;;24.24
68911;BMP180;55953;51.650;-0.522;2023-07-20T13:45:28;100612.20;;;24.20
68911;BMP180;55953;51.650;-0.522;2023-07-20T13:47:56;100610.60;;;24.00
68911;BMP180;55953;51.650;-0.522;2023-07-20T13:50:25;100607.40;;;23.80
68911;BMP180;55953;51.650;-0.522;2023-07-20T13:53:07;100605.80;;;23.80
68911;BMP180;55953;51.650;-0.522;2023-07-20T13:55:38;100603.80;;;24.12
68911;BMP180;55953;51.650;-0.522;2023-07-20T13:58:09;100606.40;;;24.50
68911;BMP180;55953;51.650;-0.522;2023-07-20T14:00:40;100607.60;;;24.60
68911;BMP180;55953;51.650;-0.522;2023-07-20T14:03:09;100607.40;;;24.70
68911;BMP180;55953;51.650;-0.522;2023-07-20T14:05:40;100607.40;;;24.60
68911;BMP180;55953;51.650;-0.522;2023-07-20T14:08:11;100611.80;;;24.60
68911;BMP180;55953;51.650;-0.522;2023-07-20T14:10:39;100609.80;;;24.50
68911;BMP180;55953;51.650;-0.522;2023-07-20T14:13:09;100603.40;;;24.36
68911;BMP180;55953;51.650;-0.522;2023-07-20T14:15:39;100599.40;;;24.20
68911;BMP180;55953;51.650;-0.522;2023-07-20T14:18:07;100595.40;;;24.20